createdAt,value
2023-04-13T00:00:39.447Z,99.90
2023-04-13T00:03:21.647Z,99.90
2023-04-13T00:05:53.673Z,99.90
2023-04-13T00:08:28.005Z,99.90
2023-04-13T00:11:08.078Z,99.90
2023-04-13T00:13:41.720Z,99.90
2023-04-13T00:16:12.970Z,99.90
2023-04-13T00:18:46.889Z,99.90
2023-04-13T00:21:17.658Z,99.90
2023-04-13T00:23:46.699Z,99.90
2023-04-13T00:26:15.714Z,99.90
2023-04-13T00:28:45.048Z,99.90
2023-04-13T00:31:14.145Z,99.90
2023-04-13T00:33:45.458Z,99.90
2023-04-13T00:36:27.900Z,99.90
2023-04-13T00:39:03.916Z,99.90
2023-04-13T00:41:33.894Z,99.90
2023-04-13T00:44:05.243Z,99.90
2023-04-13T00:46:37.219Z,99.90
2023-04-13T00:49:13.048Z,99.90
2023-04-13T00:51:45.003Z,99.90
2023-04-13T00:54:15.998Z,99.90
2023-04-13T00:56:45.572Z,99.90
2023-04-13T00:59:15.591Z,99.90
2023-04-13T01:01:51.003Z,99.90
2023-04-13T01:04:26.332Z,99.90
2023-04-13T01:07:02.368Z,99.90
2023-04-13T01:09:36.454Z,99.90
2023-04-13T01:12:13.251Z,99.90
2023-04-13T01:14:49.713Z,99.90
2023-04-13T01:17:24.952Z,99.90
2023-04-13T01:20:01.654Z,99.90
2023-04-13T01:22:36.966Z,99.90
2023-04-13T01:25:30.798Z,99.90
2023-04-13T01:28:04.358Z,99.90
2023-04-13T01:30:37.591Z,99.90
2023-04-13T01:33:08.093Z,99.90
2023-04-13T01:35:39.854Z,99.90
2023-04-13T01:38:10.271Z,99.90
2023-04-13T01:40:41.751Z,99.90
2023-04-13T01:43:14.165Z,99.90
2023-04-13T01:46:01.170Z,99.90
2023-04-13T01:48:39.039Z,99.90
2023-04-13T01:51:39.013Z,99.90
2023-04-13T01:54:14.187Z,99.90
2023-04-13T01:56:49.270Z,99.90
2023-04-13T01:59:22.998Z,99.90
2023-04-13T02:01:52.410Z,99.90
2023-04-13T02:04:22.877Z,99.90
2023-04-13T02:06:53.137Z,99.90
2023-04-13T02:09:29.559Z,99.90
2023-04-13T02:11:58.339Z,99.90
2023-04-13T02:14:28.926Z,99.90
2023-04-13T02:16:58.213Z,99.90
2023-04-13T02:19:27.797Z,99.90
2023-04-13T02:21:56.989Z,99.90
2023-04-13T02:24:26.034Z,99.90
2023-04-13T02:26:56.778Z,99.90
2023-04-13T02:29:25.763Z,99.90
2023-04-13T02:31:55.960Z,99.90
2023-04-13T02:34:25.000Z,99.90
2023-04-13T02:36:54.140Z,99.90
2023-04-13T02:39:23.919Z,99.90
2023-04-13T02:41:53.064Z,99.90
2023-04-13T02:44:24.132Z,99.90
2023-04-13T02:46:59.596Z,99.90
2023-04-13T02:49:28.535Z,99.90
2023-04-13T02:52:12.569Z,99.90
2023-04-13T02:54:54.812Z,99.90
2023-04-13T02:57:27.776Z,99.90
2023-04-13T02:59:59.240Z,99.90
2023-04-13T03:02:37.441Z,99.90
2023-04-13T03:05:07.906Z,99.90
2023-04-13T03:07:38.067Z,99.90
2023-04-13T03:10:09.145Z,99.90
2023-04-13T03:12:38.731Z,99.90
2023-04-13T03:15:12.540Z,99.90
2023-04-13T03:17:44.279Z,99.90
2023-04-13T03:20:23.870Z,99.90
2023-04-13T03:22:58.901Z,99.90
2023-04-13T03:25:33.225Z,99.90
2023-04-13T03:28:03.283Z,99.90
2023-04-13T03:30:37.486Z,99.90
2023-04-13T03:33:08.044Z,99.90
2023-04-13T03:35:39.180Z,99.90
2023-04-13T03:38:15.076Z,99.90
2023-04-13T03:40:46.513Z,99.90
2023-04-13T03:43:16.507Z,99.90
2023-04-13T03:45:50.886Z,99.90
2023-04-13T03:48:22.849Z,99.90
2023-04-13T03:50:52.235Z,99.90
2023-04-13T03:53:26.578Z,99.90
2023-04-13T03:55:58.367Z,99.90
2023-04-13T03:58:27.322Z,99.90
2023-04-13T04:00:56.127Z,99.90
2023-04-13T04:03:39.358Z,99.90
2023-04-13T04:06:11.505Z,99.90
2023-04-13T04:08:45.531Z,99.90
2023-04-13T04:11:27.286Z,99.90
2023-04-13T04:13:56.386Z,99.90
2023-04-13T04:16:26.835Z,99.90
2023-04-13T04:19:06.372Z,99.90
2023-04-13T04:21:36.177Z,99.90
2023-04-13T04:24:12.623Z,99.90
2023-04-13T04:26:50.574Z,99.90
2023-04-13T04:29:22.396Z,99.90
2023-04-13T04:31:56.366Z,99.90
2023-04-13T04:34:27.727Z,99.90
2023-04-13T04:37:02.265Z,99.90
2023-04-13T04:39:35.350Z,99.90
2023-04-13T04:42:12.736Z,99.90
2023-04-13T04:44:45.121Z,99.90
2023-04-13T04:47:17.047Z,99.90
2023-04-13T04:50:05.321Z,99.90
2023-04-13T04:52:39.477Z,99.90
2023-04-13T04:55:09.654Z,99.90
2023-04-13T04:57:41.692Z,99.90
2023-04-13T05:00:15.718Z,99.90
2023-04-13T05:02:51.210Z,99.90
2023-04-13T05:05:22.871Z,99.90
2023-04-13T05:07:52.252Z,99.90
2023-04-13T05:10:24.711Z,99.90
2023-04-13T05:12:57.634Z,99.90
2023-04-13T05:15:28.466Z,99.90
2023-04-13T05:17:58.357Z,99.90
2023-04-13T05:20:32.442Z,99.90
2023-04-13T05:23:05.430Z,99.90
2023-04-13T05:25:39.855Z,99.90
2023-04-13T05:28:16.847Z,99.90
2023-04-13T05:30:46.080Z,99.90
2023-04-13T05:33:17.186Z,99.90
2023-04-13T05:35:49.774Z,99.90
2023-04-13T05:38:18.625Z,99.90
2023-04-13T05:40:47.799Z,99.90
2023-04-13T05:43:18.125Z,99.90
2023-04-13T05:45:51.263Z,99.90
2023-04-13T05:48:20.954Z,99.90
2023-04-13T05:50:52.686Z,99.90
2023-04-13T05:53:21.732Z,99.90
2023-04-13T05:55:56.010Z,99.90
2023-04-13T05:58:27.128Z,99.90
2023-04-13T06:01:11.422Z,99.90
2023-04-13T06:03:40.513Z,99.90
2023-04-13T06:06:11.938Z,99.90
2023-04-13T06:08:41.190Z,99.90
2023-04-13T06:11:10.482Z,99.90
2023-04-13T06:13:41.273Z,99.90
2023-04-13T06:16:10.997Z,99.90
2023-04-13T06:18:39.946Z,99.90
2023-04-13T06:21:11.657Z,99.90
2023-04-13T06:23:40.779Z,99.90
2023-04-13T06:26:20.195Z,99.90
2023-04-13T06:28:55.046Z,99.90
2023-04-13T06:31:44.147Z,99.90
2023-04-13T06:34:32.906Z,99.90
2023-04-13T06:37:24.401Z,99.90
2023-04-13T06:39:55.647Z,99.90
2023-04-13T06:42:25.010Z,99.90
2023-04-13T06:45:14.675Z,99.90
2023-04-13T06:47:46.121Z,99.90
2023-04-13T06:50:17.651Z,99.90
2023-04-13T06:52:50.437Z,99.90
2023-04-13T06:55:19.516Z,99.90
2023-04-13T06:57:49.583Z,99.90
2023-04-13T07:00:29.557Z,99.90
2023-04-13T07:03:02.338Z,99.90
2023-04-13T07:05:32.678Z,99.90
2023-04-13T07:08:09.034Z,99.90
2023-04-13T07:10:41.130Z,99.90
2023-04-13T07:13:18.778Z,99.90
2023-04-13T07:15:48.617Z,99.90
2023-04-13T07:18:17.737Z,99.90
2023-04-13T07:20:53.300Z,99.90
2023-04-13T07:23:29.434Z,99.90
2023-04-13T07:25:58.898Z,99.90
2023-04-13T07:28:29.147Z,99.90
2023-04-13T07:31:04.146Z,99.90
2023-04-13T07:33:33.403Z,99.90
2023-04-13T07:36:02.534Z,99.90
2023-04-13T07:38:35.389Z,99.90
2023-04-13T07:41:04.879Z,99.90
2023-04-13T07:43:37.779Z,99.90
2023-04-13T07:46:12.876Z,99.90
2023-04-13T07:48:44.788Z,99.90
2023-04-13T07:51:24.902Z,99.90
2023-04-13T07:53:55.866Z,99.90
2023-04-13T07:56:27.926Z,99.90
2023-04-13T07:58:57.082Z,99.90
2023-04-13T08:01:28.928Z,99.90
2023-04-13T08:04:05.287Z,99.90
2023-04-13T08:06:36.132Z,99.90
2023-04-13T08:09:07.137Z,99.90
2023-04-13T08:11:36.455Z,99.90
2023-04-13T08:14:10.106Z,99.90
2023-04-13T08:16:41.978Z,99.90
2023-04-13T08:19:14.988Z,99.90
2023-04-13T08:21:50.237Z,99.90
2023-04-13T08:24:22.106Z,99.90
2023-04-13T08:26:52.565Z,99.90
2023-04-13T08:29:21.319Z,99.90
2023-04-13T08:31:50.860Z,99.90
2023-04-13T08:34:21.819Z,99.90
2023-04-13T08:36:51.210Z,99.90
2023-04-13T08:39:21.881Z,99.90
2023-04-13T08:41:50.914Z,99.60
2023-04-13T08:44:22.773Z,99.60
2023-04-13T08:46:58.920Z,99.50
2023-04-13T08:49:39.564Z,99.70
2023-04-13T08:52:51.047Z,99.90
2023-04-13T08:55:30.240Z,99.10
2023-04-13T08:58:06.696Z,99.40
2023-04-13T09:00:42.240Z,99.90
2023-04-13T09:03:16.561Z,99.90
2023-04-13T09:06:01.556Z,99.90
2023-04-13T09:08:38.852Z,99.90
2023-04-13T09:11:15.038Z,99.90
2023-04-13T09:13:59.863Z,99.90
2023-04-13T09:16:30.106Z,99.10
2023-04-13T09:19:15.632Z,98.00
2023-04-13T09:21:54.301Z,96.80
2023-04-13T09:24:27.906Z,95.90
2023-04-13T09:27:04.634Z,95.30
2023-04-13T09:29:48.936Z,95.40
2023-04-13T09:32:28.988Z,93.90
2023-04-13T09:35:07.044Z,93.10
2023-04-13T09:37:51.340Z,93.60
2023-04-13T09:40:22.758Z,93.50
2023-04-13T09:43:06.055Z,94.70
2023-04-13T09:45:37.352Z,94.90
2023-04-13T09:48:22.784Z,94.30
2023-04-13T09:51:13.584Z,94.80
2023-04-13T09:53:49.632Z,94.80
2023-04-13T09:56:22.435Z,93.90
2023-04-13T09:58:54.088Z,93.50
2023-04-13T10:01:29.441Z,93.60
2023-04-13T10:04:09.211Z,94.20
2023-04-13T10:06:46.191Z,94.00
2023-04-13T10:09:21.535Z,94.70
2023-04-13T10:12:04.080Z,95.40
2023-04-13T10:14:45.940Z,95.30
2023-04-13T10:17:37.878Z,95.00
2023-04-13T10:20:20.945Z,94.30
2023-04-13T10:22:57.295Z,93.50
2023-04-13T10:25:35.739Z,93.70
2023-04-13T10:28:15.605Z,93.00
2023-04-13T10:30:54.872Z,92.70
2023-04-13T10:33:32.381Z,92.50
2023-04-13T10:36:05.781Z,92.80
2023-04-13T10:38:49.332Z,91.80
2023-04-13T10:41:37.553Z,90.70
2023-04-13T10:44:19.131Z,88.30
2023-04-13T10:47:02.163Z,88.20
2023-04-13T10:49:39.793Z,87.70
2023-04-13T10:52:23.513Z,86.00
2023-04-13T10:55:10.921Z,84.50
2023-04-13T10:58:04.039Z,85.30
2023-04-13T11:03:18.524Z,87.40
2023-04-13T11:06:00.772Z,88.40
2023-04-13T11:08:37.551Z,89.10
2023-04-13T11:11:18.897Z,87.80
2023-04-13T11:14:01.305Z,87.40
2023-04-13T11:16:46.897Z,86.80
2023-04-13T11:19:27.695Z,86.60
2023-04-13T11:22:13.543Z,86.50
2023-04-13T11:24:48.815Z,87.60
2023-04-13T11:27:29.389Z,86.80
2023-04-13T11:30:06.075Z,86.60
2023-04-13T11:32:43.974Z,86.30
2023-04-13T11:35:22.930Z,85.20
2023-04-13T11:38:00.431Z,84.90
2023-04-13T11:40:38.486Z,84.30
2023-04-13T11:43:20.820Z,85.30
2023-04-13T11:46:03.166Z,84.20
2023-04-13T11:48:36.791Z,83.80
2023-04-13T11:51:25.623Z,83.10
2023-04-13T12:01:37.533Z,81.60
2023-04-13T12:08:34.100Z,76.30
2023-04-13T12:15:45.205Z,74.00
2023-04-13T12:22:38.752Z,74.80
2023-04-13T12:25:36.808Z,73.90
2023-04-13T12:29:18.838Z,72.90
2023-04-13T12:32:56.432Z,72.30
2023-04-13T12:36:50.851Z,74.50
2023-04-13T12:44:18.572Z,77.20
2023-04-13T12:47:15.596Z,78.80
2023-04-13T12:50:24.326Z,79.30
2023-04-13T12:53:39.400Z,75.60
2023-04-13T13:00:26.553Z,70.10
2023-04-13T13:07:41.862Z,73.50
2023-04-13T13:10:46.813Z,76.30
2023-04-13T13:13:41.823Z,74.80
2023-04-13T13:16:53.814Z,74.50
2023-04-13T13:20:03.257Z,75.20
2023-04-13T13:22:44.197Z,76.50
2023-04-13T13:28:42.208Z,75.00
2023-04-13T13:32:27.507Z,70.10
2023-04-13T13:35:22.563Z,67.10
2023-04-13T13:53:27.375Z,62.30
2023-04-13T13:59:46.381Z,62.40
2023-04-13T14:02:28.333Z,65.30
2023-04-13T14:05:17.518Z,65.00
2023-04-13T14:07:58.146Z,63.00
2023-04-13T14:11:12.988Z,64.10
2023-04-13T14:17:08.050Z,69.00
2023-04-13T14:20:31.183Z,68.50
2023-04-13T14:23:19.499Z,69.70
2023-04-13T14:26:35.218Z,67.40
2023-04-13T14:29:36.648Z,65.40
2023-04-13T14:32:27.186Z,66.20
2023-04-13T14:34:57.242Z,66.70
2023-04-13T14:37:39.891Z,67.60
2023-04-13T14:40:28.754Z,68.30
2023-04-13T14:43:11.776Z,68.90
2023-04-13T14:46:12.241Z,69.70
2023-04-13T14:49:02.634Z,69.50
2023-04-13T14:51:34.676Z,68.50
2023-04-13T14:54:09.576Z,66.80
2023-04-13T14:57:19.347Z,67.30
2023-04-13T15:00:20.926Z,66.20
2023-04-13T15:02:57.308Z,62.60
2023-04-13T15:08:24.284Z,57.70
2023-04-13T15:10:59.593Z,55.50
2023-04-13T15:13:31.076Z,55.50
2023-04-13T15:16:11.919Z,58.60
2023-04-13T15:18:47.418Z,57.90
2023-04-13T15:21:40.631Z,58.60
2023-04-13T15:24:11.864Z,60.30
2023-04-13T15:26:48.450Z,62.30
2023-04-13T15:29:17.787Z,61.60
2023-04-13T15:31:58.508Z,58.50
2023-04-13T15:34:40.991Z,56.90
2023-04-13T15:37:15.406Z,57.00
2023-04-13T15:39:49.757Z,58.20
2023-04-13T15:42:37.277Z,57.80
2023-04-13T15:45:26.966Z,57.50
2023-04-13T15:47:59.551Z,57.20
2023-04-13T15:50:30.757Z,57.70
2023-04-13T15:53:00.424Z,58.30
2023-04-13T15:55:40.702Z,57.50
2023-04-13T15:58:22.356Z,56.70
2023-04-13T16:01:12.873Z,56.00
2023-04-13T16:04:14.009Z,55.10
2023-04-13T16:07:13.783Z,56.00
2023-04-13T16:10:09.941Z,56.00
2023-04-13T16:16:00.619Z,54.60
2023-04-13T16:18:43.526Z,56.30
2023-04-13T16:21:20.426Z,58.00
2023-04-13T16:23:58.716Z,57.80
2023-04-13T16:26:33.568Z,59.30
2023-04-13T16:29:02.961Z,59.60
2023-04-13T16:31:57.626Z,60.40
2023-04-13T16:34:35.789Z,61.00
2023-04-13T16:37:59.666Z,60.10
2023-04-13T16:40:34.322Z,58.60
2023-04-13T16:43:32.129Z,57.00
2023-04-13T16:46:30.949Z,56.30
2023-04-13T16:49:21.200Z,56.60
2023-04-13T16:52:28.209Z,57.20
2023-04-13T16:55:09.536Z,56.60
2023-04-13T16:57:53.220Z,57.80
2023-04-13T17:00:41.748Z,59.40
2023-04-13T17:03:21.169Z,60.00
2023-04-13T17:06:40.378Z,59.70
2023-04-13T17:09:30.265Z,59.50
2023-04-13T17:12:49.914Z,59.10
2023-04-13T17:15:39.818Z,57.40
2023-04-13T17:18:53.304Z,55.10
2023-04-13T17:21:31.854Z,57.80
2023-04-13T17:24:38.012Z,59.10
2023-04-13T17:27:24.303Z,60.30
2023-04-13T17:30:28.344Z,61.00
2023-04-13T17:33:02.076Z,61.70
2023-04-13T17:35:47.113Z,61.60
2023-04-13T17:38:31.160Z,62.70
2023-04-13T17:41:01.536Z,61.80
2023-04-13T17:44:00.836Z,61.30
2023-04-13T17:46:56.873Z,62.00
2023-04-13T17:49:57.334Z,62.10
2023-04-13T17:53:16.184Z,62.30
2023-04-13T17:56:07.721Z,62.80
2023-04-13T17:59:15.605Z,63.40
2023-04-13T18:02:40.658Z,63.30
2023-04-13T18:06:33.529Z,63.80
2023-04-13T18:34:37.366Z,68.30
2023-04-13T18:37:49.219Z,68.90
2023-04-13T18:46:00.310Z,71.80
2023-04-13T18:49:24.940Z,73.90
2023-04-13T18:52:14.139Z,76.20
2023-04-13T18:57:50.195Z,79.00
2023-04-13T19:00:31.468Z,81.50
2023-04-13T19:03:17.206Z,82.70
2023-04-13T19:05:50.993Z,82.70
2023-04-13T19:08:28.185Z,83.40
2023-04-13T19:11:15.852Z,84.50
2023-04-13T19:13:52.292Z,85.50
2023-04-13T19:16:28.889Z,87.00
2023-04-13T19:19:03.283Z,88.20
2023-04-13T19:21:44.651Z,89.10
2023-04-13T19:24:19.165Z,89.80
2023-04-13T19:27:05.661Z,90.40
2023-04-13T19:29:41.809Z,91.10
2023-04-13T19:32:24.269Z,91.80
2023-04-13T19:35:03.040Z,92.60
2023-04-13T19:37:46.335Z,93.00
2023-04-13T19:40:29.329Z,93.60
2023-04-13T19:43:12.468Z,94.10
2023-04-13T19:45:53.979Z,94.30
2023-04-13T19:48:36.109Z,94.40
2023-04-13T19:51:12.786Z,94.30
2023-04-13T19:53:46.756Z,93.40
2023-04-13T19:56:22.256Z,93.40
2023-04-13T19:59:00.536Z,93.80
2023-04-13T20:01:38.215Z,93.70
2023-04-13T20:04:15.826Z,94.00
2023-04-13T20:06:51.147Z,93.70
2023-04-13T20:09:23.690Z,93.70
2023-04-13T20:11:58.020Z,93.50
2023-04-13T20:14:43.965Z,93.50
2023-04-13T20:17:17.272Z,93.90
2023-04-13T20:19:53.898Z,94.30
2023-04-13T20:22:28.726Z,95.00
2023-04-13T20:25:02.296Z,95.60
2023-04-13T20:27:48.194Z,95.90
2023-04-13T20:30:22.817Z,96.30
2023-04-13T20:33:05.623Z,96.80
2023-04-13T20:35:43.766Z,97.00
2023-04-13T20:38:26.201Z,97.20
2023-04-13T20:41:03.188Z,97.40
2023-04-13T20:43:40.678Z,97.20
2023-04-13T20:46:19.169Z,97.20
2023-04-13T20:48:56.338Z,97.30
2023-04-13T20:51:32.701Z,96.80
2023-04-13T20:54:15.934Z,96.50
2023-04-13T20:56:53.380Z,96.30
2023-04-13T20:59:40.637Z,96.50
2023-04-13T21:02:26.892Z,96.90
2023-04-13T21:05:03.697Z,97.40
2023-04-13T21:07:39.809Z,98.20
2023-04-13T21:10:16.761Z,98.80
2023-04-13T21:12:57.788Z,98.80
2023-04-13T21:15:37.678Z,98.60
2023-04-13T21:18:14.525Z,98.30
2023-04-13T21:21:03.644Z,97.80
2023-04-13T21:24:02.811Z,97.10
2023-04-13T21:27:29.619Z,96.60
2023-04-13T21:30:33.169Z,96.50
2023-04-13T21:34:02.752Z,96.60
2023-04-13T21:37:11.089Z,96.50
2023-04-13T21:39:59.791Z,96.00
2023-04-13T21:42:57.804Z,95.60
2023-04-13T21:46:10.200Z,95.10
2023-04-13T21:53:28.355Z,94.70
2023-04-13T21:56:10.138Z,94.90
2023-04-13T21:59:07.444Z,95.30
2023-04-13T22:01:47.554Z,95.30
2023-04-13T22:04:24.607Z,94.90
2023-04-13T22:07:11.413Z,94.40
2023-04-13T22:09:58.342Z,94.20
2023-04-13T22:12:51.434Z,94.20
2023-04-13T22:15:27.353Z,94.40
2023-04-13T22:18:01.197Z,94.50
2023-04-13T22:20:53.814Z,94.50
2023-04-13T22:23:44.548Z,94.60
2023-04-13T22:26:49.191Z,95.30
2023-04-13T22:29:37.852Z,96.10
2023-04-13T22:32:17.476Z,96.60
2023-04-13T22:34:52.123Z,97.40
2023-04-13T22:37:26.610Z,97.70
2023-04-13T22:39:55.983Z,98.50
2023-04-13T22:42:27.211Z,99.20
2023-04-13T22:44:59.651Z,99.90
2023-04-13T22:47:31.195Z,99.90
2023-04-13T22:50:09.398Z,99.90
2023-04-13T22:52:47.114Z,99.90
2023-04-13T22:55:21.443Z,99.90
2023-04-13T22:57:53.117Z,99.90
2023-04-13T23:00:22.508Z,99.90
2023-04-13T23:02:59.420Z,99.90
2023-04-13T23:05:33.910Z,99.90
2023-04-13T23:08:09.058Z,99.90
2023-04-13T23:10:41.979Z,99.90
2023-04-13T23:13:24.078Z,99.90
2023-04-13T23:16:06.211Z,99.90
2023-04-13T23:18:44.258Z,99.90
2023-04-13T23:21:17.580Z,99.90
2023-04-13T23:23:53.550Z,99.90
2023-04-13T23:26:30.031Z,99.90
2023-04-13T23:29:19.111Z,99.90
2023-04-13T23:32:16.787Z,99.90
2023-04-13T23:35:18.751Z,99.90
2023-04-13T23:38:01.180Z,99.90
2023-04-13T23:40:42.356Z,99.90
2023-04-13T23:43:17.348Z,99.90
2023-04-13T23:45:52.896Z,99.90
2023-04-13T23:48:31.294Z,99.90
2023-04-13T23:51:03.551Z,99.90
2023-04-13T23:53:49.674Z,99.90
2023-04-13T23:56:31.314Z,99.90
2023-04-13T23:59:02.814Z,99.90
